Stolt Ami — 3EAZ5 — position and weather

sailwx.info

Track history (hours):
 
Tides and Currents Weather Stations Pressure Air Temp Water Temp Dewpoint Dewpoint Depression Visibility Wind Speed Wind Dir Waves Ship Positions

Stolt Ami

Last reported at 2018-May-18 18:35 UTC. Time now 2018-May-25 03:03 UTC.
Position N 22°18' E 119°50'.

Length 143 m; draft 9.1 m.

Type: Ship (hazmat cat B). MMSI: 371392514.

Date/timePositionNaut miles runAvg speedWind from/ knotsBaromVisibWave heightAir tempDewpointWater temp
2018-May-18 18:35N 22°18' E 119°50'314.2
2018-May-18 18:22N 22°21' E 119°51'613.6
2018-May-18 17:55N 22°27' E 119°51'613.6
2018-May-18 17:28N 22°33' E 119°52'714.0
2018-May-18 17:00N 22°39' E 119°53'713.8
2018-May-18 16:30N 22°46' E 119°53'713.5
2018-May-18 15:59N 22°53' E 119°53'2511.8
2018-May-18 13:51N 23°18' E 119°54'410.7
2018-May-18 13:30N 23°22' E 119°54'910.7
2018-May-18 12:40N 23°31' E 119°54'1110.9
2018-May-18 11:40N 23°42' E 119°54'411.8
2018-May-18 11:20N 23°46' E 119°53'412.0
2018-May-18 11:00N 23°50' E 119°54'612.2
2018-May-18 10:30N 23°56' E 119°54'913.1
2018-May-18 09:51N 24°05' E 119°54'513.6
2018-May-18 09:30N 24°09' E 119°55'713.2
2018-May-18 09:01N 24°16' E 119°53'814.6
2018-May-18 08:29N 24°21' E 119°47'52 1.2
2018-May-16 13:07N 24°56' E 119°05'0 2.7
2018-May-16 13:00N 24°56' E 119°05'2415.2
2018-May-16 11:24N 24°34' E 118°55'615.8
2018-May-16 11:00N 24°28' E 118°52'815.7
2018-May-16 10:30N 24°21' E 118°49'815.2
2018-May-16 10:00N 24°13' E 118°46'815.1
2018-May-16 09:30N 24°07' E 118°43'714.7
2018-May-16 09:00N 23°60' E 118°40'2312.9
2018-May-16 07:13N 23°41' E 118°25'2813.5
2018-May-16 05:10N 23°26' E 118°00'213.9
2018-May-16 05:00N 23°26' E 117°57'714.0
2018-May-16 04:28N 23°21' E 117°51'714.4
2018-May-16 04:00N 23°17' E 117°45'914.7
2018-May-16 03:25N 23°13' E 117°37'715.1
2018-May-16 02:57N 23°10' E 117°30'715.6
2018-May-16 02:30N 23°06' E 117°24'  
Track history (hours):
 
Tides and Currents Weather Stations Pressure Air Temp Water Temp Dewpoint Dewpoint Depression Visibility Wind Speed Wind Dir Waves Ship Positions

Stolt Ami

Last reported at 2018-May-18 18:35 UTC. Time now 2018-May-25 03:03 UTC.
Position N 22°18' E 119°50'.

Length 143 m; draft 9.1 m.

Type: Ship (hazmat cat B). MMSI: 371392514.

Date/timePositionNaut miles runAvg speedWind from/ knotsBaromVisibWave heightAir tempDewpointWater temp
2018-May-18 18:35N 22°18' E 119°50'314.2
2018-May-18 18:22N 22°21' E 119°51'613.6
2018-May-18 17:55N 22°27' E 119°51'613.6
2018-May-18 17:28N 22°33' E 119°52'714.0
2018-May-18 17:00N 22°39' E 119°53'713.8
2018-May-18 16:30N 22°46' E 119°53'713.5
2018-May-18 15:59N 22°53' E 119°53'2511.8
2018-May-18 13:51N 23°18' E 119°54'410.7
2018-May-18 13:30N 23°22' E 119°54'910.7
2018-May-18 12:40N 23°31' E 119°54'1110.9
2018-May-18 11:40N 23°42' E 119°54'411.8
2018-May-18 11:20N 23°46' E 119°53'412.0
2018-May-18 11:00N 23°50' E 119°54'612.2
2018-May-18 10:30N 23°56' E 119°54'913.1
2018-May-18 09:51N 24°05' E 119°54'513.6
2018-May-18 09:30N 24°09' E 119°55'713.2
2018-May-18 09:01N 24°16' E 119°53'814.6
2018-May-18 08:29N 24°21' E 119°47'52 1.2
2018-May-16 13:07N 24°56' E 119°05'0 2.7
2018-May-16 13:00N 24°56' E 119°05'2415.2
2018-May-16 11:24N 24°34' E 118°55'615.8
2018-May-16 11:00N 24°28' E 118°52'815.7
2018-May-16 10:30N 24°21' E 118°49'815.2
2018-May-16 10:00N 24°13' E 118°46'815.1
2018-May-16 09:30N 24°07' E 118°43'714.7
2018-May-16 09:00N 23°60' E 118°40'2312.9
2018-May-16 07:13N 23°41' E 118°25'2813.5
2018-May-16 05:10N 23°26' E 118°00'213.9
2018-May-16 05:00N 23°26' E 117°57'714.0
2018-May-16 04:28N 23°21' E 117°51'714.4
2018-May-16 04:00N 23°17' E 117°45'914.7
2018-May-16 03:25N 23°13' E 117°37'715.1
2018-May-16 02:57N 23°10' E 117°30'715.6
2018-May-16 02:30N 23°06' E 117°24'  

Dump ship's entire track history